createdAt,value
2018-02-18T00:00:27.299Z,18.10
2018-02-18T00:01:27.284Z,20.90
2018-02-18T00:02:27.256Z,19.20
2018-02-18T00:03:27.235Z,19.20
2018-02-18T00:04:27.220Z,18.50
2018-02-18T00:05:27.199Z,16.90
2018-02-18T00:06:27.178Z,16.40
2018-02-18T00:07:27.164Z,18.00
2018-02-18T00:08:27.533Z,16.50
2018-02-18T00:09:27.113Z,17.30
2018-02-18T00:10:27.095Z,18.70
2018-02-18T00:11:27.075Z,17.90
2018-02-18T00:12:27.049Z,14.20
2018-02-18T00:13:27.030Z,15.80
2018-02-18T00:14:27.009Z,17.00
2018-02-18T00:15:26.992Z,19.80
2018-02-18T00:16:26.972Z,19.60
2018-02-18T00:17:26.945Z,19.10
2018-02-18T00:18:26.927Z,18.10
2018-02-18T00:19:26.965Z,17.70
2018-02-18T00:20:26.896Z,17.50
2018-02-18T00:21:26.863Z,17.60
2018-02-18T00:22:26.844Z,17.10
2018-02-18T00:23:26.825Z,16.10
2018-02-18T00:24:26.804Z,19.90
2018-02-18T00:25:26.781Z,17.70
2018-02-18T00:26:26.766Z,18.00
2018-02-18T00:27:26.746Z,18.60
2018-02-18T00:28:26.722Z,16.10
2018-02-18T00:29:26.699Z,20.40
2018-02-18T00:30:26.678Z,19.50
2018-02-18T00:31:26.656Z,18.60
2018-02-18T00:32:26.642Z,19.50
2018-02-18T00:33:26.615Z,18.00
2018-02-18T00:34:26.601Z,17.20
2018-02-18T00:35:26.579Z,19.40
2018-02-18T00:36:26.554Z,17.40
2018-02-18T00:37:26.534Z,17.60
2018-02-18T00:38:26.513Z,18.40
2018-02-18T00:39:26.491Z,19.90
2018-02-18T00:40:26.473Z,18.70
2018-02-18T00:41:26.455Z,17.90
2018-02-18T00:42:26.432Z,20.60
2018-02-18T00:43:26.411Z,18.00
2018-02-18T00:44:26.387Z,18.20
2018-02-18T00:45:26.371Z,18.90
2018-02-18T00:46:26.356Z,17.90
2018-02-18T00:47:26.335Z,19.40
2018-02-18T00:48:26.308Z,18.50
2018-02-18T00:49:26.293Z,16.10
2018-02-18T00:50:26.267Z,17.40
2018-02-18T00:51:26.244Z,16.20
2018-02-18T00:52:26.230Z,18.20
2018-02-18T00:53:26.205Z,18.70
2018-02-18T00:54:26.181Z,17.80
2018-02-18T00:55:26.164Z,19.90
2018-02-18T00:56:26.144Z,15.70
2018-02-18T00:57:26.133Z,17.80
2018-02-18T00:58:26.102Z,19.40
2018-02-18T00:59:26.084Z,16.70
2018-02-18T01:00:26.061Z,17.10
2018-02-18T01:01:26.046Z,17.60
2018-02-18T01:02:26.021Z,17.60
2018-02-18T01:03:26.072Z,16.50
2018-02-18T01:04:25.976Z,18.90
2018-02-18T01:05:25.967Z,14.40
2018-02-18T01:06:25.937Z,18.70
2018-02-18T01:07:25.969Z,17.40
2018-02-18T01:08:25.893Z,16.40
2018-02-18T01:09:25.928Z,15.60
2018-02-18T01:10:25.856Z,15.80
2018-02-18T01:11:25.886Z,17.30
2018-02-18T01:12:25.814Z,15.50
2018-02-18T01:13:25.817Z,15.50
2018-02-18T01:14:25.771Z,15.60
2018-02-18T01:15:25.750Z,16.70
2018-02-18T01:16:25.731Z,16.80
2018-02-18T01:17:25.763Z,15.50
2018-02-18T01:18:25.699Z,16.20
2018-02-18T01:19:25.675Z,16.30
2018-02-18T01:20:25.654Z,14.30
2018-02-18T01:21:25.632Z,15.70
2018-02-18T01:22:25.605Z,18.80
2018-02-18T01:23:25.584Z,15.50
2018-02-18T01:24:25.564Z,14.70
2018-02-18T01:25:25.545Z,16.80
2018-02-18T01:26:25.525Z,16.10
2018-02-18T01:27:25.501Z,17.40
2018-02-18T01:28:25.480Z,15.70
2018-02-18T01:29:25.460Z,17.50
2018-02-18T01:30:25.442Z,15.70
2018-02-18T01:31:25.470Z,14.50
2018-02-18T01:32:25.396Z,13.10
2018-02-18T01:33:25.377Z,15.10
2018-02-18T01:34:25.355Z,15.50
2018-02-18T01:35:25.340Z,16.90
2018-02-18T01:36:25.314Z,13.90
2018-02-18T01:37:25.293Z,17.90
2018-02-18T01:38:25.275Z,15.60
2018-02-18T01:39:25.405Z,16.40
2018-02-18T01:40:25.233Z,15.20
2018-02-18T01:41:25.215Z,15.10
2018-02-18T01:42:25.192Z,14.00
2018-02-18T01:43:25.224Z,16.10
2018-02-18T01:44:25.157Z,16.40
2018-02-18T01:45:25.127Z,14.50
2018-02-18T01:46:25.111Z,14.20
2018-02-18T01:47:25.089Z,13.50
2018-02-18T01:48:25.068Z,15.40
2018-02-18T01:49:25.044Z,15.30
2018-02-18T01:50:25.026Z,13.00
2018-02-18T01:51:25.005Z,15.90
2018-02-18T01:52:24.984Z,15.40
2018-02-18T01:53:24.964Z,17.20
2018-02-18T01:54:24.942Z,13.50
2018-02-18T01:55:24.922Z,14.40
2018-02-18T01:56:24.903Z,13.40
2018-02-18T01:57:24.881Z,14.70
2018-02-18T01:58:24.859Z,14.50
2018-02-18T01:59:24.842Z,15.90
2018-02-18T02:00:24.819Z,16.60
2018-02-18T02:01:24.795Z,14.80
2018-02-18T02:02:24.779Z,13.00
2018-02-18T02:03:24.756Z,16.20
2018-02-18T02:04:24.735Z,13.70
2018-02-18T02:05:24.719Z,12.60
2018-02-18T02:06:24.696Z,14.50
2018-02-18T02:07:25.074Z,11.60
2018-02-18T02:08:24.657Z,13.10
2018-02-18T02:09:24.633Z,16.10
2018-02-18T02:10:24.612Z,15.40
2018-02-18T02:11:24.589Z,16.10
2018-02-18T02:12:24.576Z,16.00
2018-02-18T02:13:24.550Z,12.70
2018-02-18T02:14:24.528Z,13.40
2018-02-18T02:15:24.511Z,12.80
2018-02-18T02:16:24.496Z,13.60
2018-02-18T02:17:24.465Z,16.00
2018-02-18T02:18:24.446Z,13.00
2018-02-18T02:19:24.674Z,12.20
2018-02-18T02:20:25.405Z,12.10
2018-02-18T02:21:24.383Z,14.00
2018-02-18T02:22:24.367Z,15.00
2018-02-18T02:23:24.346Z,11.50
2018-02-18T02:24:24.320Z,14.30
2018-02-18T02:25:24.296Z,11.90
2018-02-18T02:26:24.277Z,13.40
2018-02-18T02:27:24.259Z,15.00
2018-02-18T02:28:24.239Z,14.90
2018-02-18T02:29:24.215Z,13.80
2018-02-18T02:30:24.194Z,16.40
2018-02-18T02:31:24.179Z,15.70
2018-02-18T02:32:24.156Z,12.60
2018-02-18T02:33:24.138Z,12.60
2018-02-18T02:34:24.112Z,16.40
2018-02-18T02:35:24.097Z,14.50
2018-02-18T02:36:24.071Z,13.90
2018-02-18T02:37:24.051Z,12.90
2018-02-18T02:38:24.031Z,14.40
2018-02-18T02:39:24.012Z,12.70
2018-02-18T02:40:23.986Z,15.40
2018-02-18T02:41:23.971Z,14.80
2018-02-18T02:42:23.947Z,12.70
2018-02-18T02:43:23.932Z,13.20
2018-02-18T02:44:23.907Z,12.30
2018-02-18T02:45:23.886Z,12.30
2018-02-18T02:46:23.865Z,12.90
2018-02-18T02:47:23.845Z,13.30
2018-02-18T02:48:23.823Z,14.90
2018-02-18T02:49:23.806Z,13.50
2018-02-18T02:50:23.785Z,14.20
2018-02-18T02:51:23.757Z,14.40
2018-02-18T02:52:23.744Z,13.70
2018-02-18T02:53:23.717Z,13.30
2018-02-18T02:54:23.702Z,12.40
2018-02-18T02:55:23.679Z,15.00
2018-02-18T02:56:23.655Z,14.30
2018-02-18T02:57:23.635Z,12.60
2018-02-18T02:58:23.617Z,13.70
2018-02-18T02:59:23.594Z,13.80
2018-02-18T03:00:23.574Z,13.10
2018-02-18T03:01:23.552Z,13.00
2018-02-18T03:02:23.535Z,13.50
2018-02-18T03:03:23.516Z,15.30
2018-02-18T03:04:23.489Z,11.30
2018-02-18T03:05:23.473Z,12.70
2018-02-18T03:06:23.457Z,13.40
2018-02-18T03:07:23.428Z,14.00
2018-02-18T03:08:23.407Z,11.60
2018-02-18T03:09:23.385Z,14.40
2018-02-18T03:10:23.366Z,15.40
2018-02-18T03:11:23.345Z,16.10
2018-02-18T03:12:23.323Z,15.50
2018-02-18T03:13:23.302Z,14.10
2018-02-18T03:14:23.283Z,14.30
2018-02-18T03:15:23.263Z,12.40
2018-02-18T03:16:23.244Z,16.90
2018-02-18T03:17:23.219Z,13.70
2018-02-18T03:18:23.200Z,14.00
2018-02-18T03:19:23.180Z,12.00
2018-02-18T03:20:23.159Z,13.60
2018-02-18T03:21:23.135Z,13.90
2018-02-18T03:22:23.113Z,13.30
2018-02-18T03:23:23.092Z,15.70
2018-02-18T03:24:23.071Z,13.00
2018-02-18T03:25:23.049Z,15.90
2018-02-18T03:26:23.038Z,12.60
2018-02-18T03:27:23.013Z,14.40
2018-02-18T03:28:22.989Z,13.80
2018-02-18T03:29:22.968Z,13.90
2018-02-18T03:30:23.199Z,12.60
2018-02-18T03:31:22.927Z,13.60
2018-02-18T03:32:22.904Z,14.50
2018-02-18T03:33:22.888Z,12.30
2018-02-18T03:34:22.863Z,13.10
2018-02-18T03:35:22.900Z,12.70
2018-02-18T03:36:22.823Z,12.30
2018-02-18T03:37:22.803Z,14.20
2018-02-18T03:38:22.786Z,14.30
2018-02-18T03:39:22.764Z,12.30
2018-02-18T03:40:22.739Z,15.80
2018-02-18T03:41:22.719Z,13.70
2018-02-18T03:42:22.701Z,11.40
2018-02-18T03:43:22.677Z,14.10
2018-02-18T03:44:22.653Z,13.10
2018-02-18T03:45:22.634Z,14.30
2018-02-18T03:46:22.616Z,13.20
2018-02-18T03:47:22.593Z,13.80
2018-02-18T03:48:22.573Z,14.90
2018-02-18T03:49:22.549Z,13.10
2018-02-18T03:50:22.531Z,14.10
2018-02-18T03:51:22.514Z,14.70
2018-02-18T03:52:22.491Z,14.80
2018-02-18T03:53:22.469Z,13.00
2018-02-18T03:54:22.449Z,15.30
2018-02-18T03:55:22.426Z,14.90
2018-02-18T03:56:22.407Z,12.30
2018-02-18T03:57:22.384Z,15.70
2018-02-18T03:58:22.365Z,14.50
2018-02-18T03:59:22.345Z,14.70
2018-02-18T04:00:22.325Z,11.60
2018-02-18T04:01:22.302Z,13.20
2018-02-18T04:02:22.280Z,17.00
2018-02-18T04:03:22.261Z,13.10
2018-02-18T04:04:22.241Z,12.90
2018-02-18T04:05:22.219Z,12.90
2018-02-18T04:06:22.209Z,14.20
2018-02-18T04:07:22.176Z,13.80
2018-02-18T04:08:22.155Z,13.10
2018-02-18T04:09:22.133Z,15.90
2018-02-18T04:10:22.116Z,11.60
2018-02-18T04:11:22.097Z,15.60
2018-02-18T04:12:22.075Z,14.30
2018-02-18T04:13:22.055Z,14.40
2018-02-18T04:14:22.034Z,13.80
2018-02-18T04:15:22.012Z,14.00
2018-02-18T04:16:22.037Z,13.70
2018-02-18T04:17:21.966Z,14.10
2018-02-18T04:18:21.977Z,15.10
2018-02-18T04:19:21.927Z,12.90
2018-02-18T04:20:21.971Z,13.80
2018-02-18T04:21:21.887Z,15.20
2018-02-18T04:22:21.883Z,14.40
2018-02-18T04:23:21.844Z,13.40
2018-02-18T04:24:21.868Z,14.00
2018-02-18T04:25:21.799Z,12.70
2018-02-18T04:26:21.834Z,13.10
2018-02-18T04:27:21.756Z,14.10
2018-02-18T04:28:21.786Z,14.00
2018-02-18T04:29:21.726Z,13.00
2018-02-18T04:30:21.744Z,14.40
2018-02-18T04:31:21.674Z,13.10
2018-02-18T04:32:21.651Z,12.90
2018-02-18T04:33:21.647Z,15.10
2018-02-18T04:34:21.617Z,14.00
2018-02-18T04:35:21.595Z,13.40
2018-02-18T04:36:21.670Z,11.70
2018-02-18T04:37:21.548Z,12.20
2018-02-18T04:38:21.531Z,11.30
2018-02-18T04:39:21.507Z,13.00
2018-02-18T04:40:21.495Z,12.20
2018-02-18T04:41:21.467Z,12.30
2018-02-18T04:42:21.468Z,12.40
2018-02-18T04:43:21.429Z,13.40
2018-02-18T04:44:21.558Z,11.70
2018-02-18T04:45:21.384Z,12.50
2018-02-18T04:46:21.515Z,12.40
2018-02-18T04:47:21.340Z,11.20
2018-02-18T04:48:21.423Z,12.60
2018-02-18T04:49:21.301Z,11.90
2018-02-18T04:50:21.336Z,14.40
2018-02-18T04:51:21.257Z,12.30
2018-02-18T04:52:21.295Z,13.50
2018-02-18T04:53:21.215Z,12.80
2018-02-18T04:54:21.304Z,13.60
2018-02-18T04:55:21.173Z,13.40
2018-02-18T04:56:21.255Z,10.60
2018-02-18T04:57:21.134Z,11.60
2018-02-18T04:58:21.118Z,11.60
2018-02-18T04:59:21.095Z,13.00
2018-02-18T05:00:21.168Z,14.60
2018-02-18T05:01:21.046Z,14.40
2018-02-18T05:02:21.032Z,13.10
2018-02-18T05:03:21.005Z,11.00
2018-02-18T05:04:20.984Z,13.90
2018-02-18T05:05:20.966Z,12.50
2018-02-18T05:06:20.962Z,11.10
2018-02-18T05:07:20.922Z,12.40
2018-02-18T05:08:20.901Z,10.90
2018-02-18T05:09:20.882Z,12.70
2018-02-18T05:10:20.858Z,12.10
2018-02-18T05:11:20.842Z,11.20
2018-02-18T05:12:20.817Z,12.60
2018-02-18T05:13:20.801Z,12.80
2018-02-18T05:14:20.783Z,10.60
2018-02-18T05:15:20.754Z,12.60
2018-02-18T05:16:20.735Z,13.70
2018-02-18T05:17:20.717Z,12.80
2018-02-18T05:18:20.704Z,13.40
2018-02-18T05:19:20.674Z,14.00
2018-02-18T05:20:20.654Z,13.10
2018-02-18T05:21:20.881Z,12.80
2018-02-18T05:22:20.608Z,13.80
2018-02-18T05:23:20.587Z,11.50
2018-02-18T05:24:20.570Z,15.50
2018-02-18T05:25:20.550Z,11.00
2018-02-18T05:26:20.779Z,10.50
2018-02-18T05:27:20.504Z,14.30
2018-02-18T05:28:20.485Z,14.20
2018-02-18T05:29:20.462Z,12.60
2018-02-18T05:30:20.439Z,12.70
2018-02-18T05:31:20.670Z,13.40
2018-02-18T05:32:20.398Z,13.60
2018-02-18T05:33:20.378Z,13.90
2018-02-18T05:34:20.372Z,13.50
2018-02-18T05:35:20.349Z,13.70
2018-02-18T05:36:20.313Z,16.70
2018-02-18T05:37:20.291Z,13.30
2018-02-18T05:38:20.274Z,13.50
2018-02-18T05:39:20.250Z,17.30
2018-02-18T05:40:20.231Z,14.50
2018-02-18T05:41:20.213Z,13.40
2018-02-18T05:42:20.193Z,12.50
2018-02-18T05:43:20.169Z,13.60
2018-02-18T05:44:20.163Z,12.90
2018-02-18T05:45:20.125Z,11.80
2018-02-18T05:46:20.355Z,14.30
2018-02-18T05:47:20.093Z,12.90
2018-02-18T05:48:20.065Z,14.30
2018-02-18T05:49:20.062Z,14.00
2018-02-18T05:50:20.023Z,14.70
2018-02-18T05:51:20.000Z,13.80
2018-02-18T05:52:19.981Z,15.10
2018-02-18T05:53:19.959Z,15.90
2018-02-18T05:54:19.938Z,12.50
2018-02-18T05:55:19.924Z,12.50
2018-02-18T05:56:19.896Z,15.60
2018-02-18T05:57:19.874Z,13.70
2018-02-18T05:58:19.853Z,14.10
2018-02-18T05:59:19.834Z,13.30
2018-02-18T06:00:19.812Z,14.20
2018-02-18T06:01:19.794Z,14.40
2018-02-18T06:02:19.772Z,13.80
2018-02-18T06:03:19.750Z,13.60
2018-02-18T06:04:19.738Z,14.10
2018-02-18T06:05:19.706Z,13.80
2018-02-18T06:06:19.693Z,15.70
2018-02-18T06:07:19.674Z,14.00
2018-02-18T06:08:19.644Z,14.40
2018-02-18T06:09:19.630Z,14.40
2018-02-18T06:10:19.604Z,12.90
2018-02-18T06:11:19.580Z,12.10
2018-02-18T06:12:19.559Z,15.00
2018-02-18T06:13:19.547Z,13.80
2018-02-18T06:14:19.517Z,13.30
2018-02-18T06:15:19.501Z,12.50
2018-02-18T06:16:19.475Z,13.00
2018-02-18T06:17:19.463Z,15.00
2018-02-18T06:18:19.434Z,12.90
2018-02-18T06:19:19.414Z,14.60
2018-02-18T06:20:19.391Z,12.80
2018-02-18T06:21:19.375Z,11.00
2018-02-18T06:22:19.355Z,12.70
2018-02-18T06:23:19.333Z,12.10
2018-02-18T06:24:19.310Z,13.50
2018-02-18T06:25:19.288Z,10.90
2018-02-18T06:26:19.272Z,11.50
2018-02-18T06:27:19.249Z,12.60
2018-02-18T06:28:19.224Z,10.00
2018-02-18T06:29:19.205Z,12.90
2018-02-18T06:30:19.183Z,12.10
2018-02-18T06:31:19.168Z,10.60
2018-02-18T06:32:19.143Z,12.20
2018-02-18T06:33:19.122Z,12.40
2018-02-18T06:34:19.101Z,14.00
2018-02-18T06:35:19.077Z,13.20
2018-02-18T06:36:19.060Z,10.70
2018-02-18T06:37:19.042Z,10.40
2018-02-18T06:38:19.015Z,12.80
2018-02-18T06:39:18.995Z,13.30
2018-02-18T06:40:18.976Z,10.10
2018-02-18T06:41:18.954Z,10.70
2018-02-18T06:42:18.932Z,10.50
2018-02-18T06:43:18.913Z,10.40
2018-02-18T06:44:18.939Z,10.90
2018-02-18T06:45:18.868Z,10.20
2018-02-18T06:46:18.853Z,12.50
2018-02-18T06:47:18.827Z,11.40
2018-02-18T06:48:18.804Z,11.20
2018-02-18T06:49:18.785Z,12.60
2018-02-18T06:50:18.763Z,11.90
2018-02-18T06:51:18.746Z,10.50
2018-02-18T06:52:18.727Z,13.90
2018-02-18T06:53:18.701Z,12.70
2018-02-18T06:54:18.679Z,11.10
2018-02-18T06:55:18.663Z,11.50
2018-02-18T06:56:18.640Z,11.50
2018-02-18T06:57:18.868Z,12.90
2018-02-18T06:58:18.612Z,14.60
2018-02-18T06:59:18.575Z,12.00
2018-02-18T07:00:18.554Z,14.50
2018-02-18T07:01:18.538Z,13.10
2018-02-18T07:02:18.767Z,13.70
2018-02-18T07:03:18.496Z,13.70
2018-02-18T07:04:18.474Z,14.20
2018-02-18T07:05:18.446Z,14.90
2018-02-18T07:06:18.430Z,13.50
2018-02-18T07:07:18.662Z,12.50
2018-02-18T07:08:18.385Z,13.20
2018-02-18T07:09:18.376Z,15.30
2018-02-18T07:10:18.347Z,14.70
2018-02-18T07:11:18.323Z,12.80
2018-02-18T07:12:18.304Z,12.00
2018-02-18T07:13:18.281Z,14.10
2018-02-18T07:14:18.264Z,14.70
2018-02-18T07:15:18.245Z,14.10
2018-02-18T07:16:18.216Z,15.50
2018-02-18T07:17:18.501Z,27.30
2018-02-18T07:18:18.182Z,41.80
2018-02-18T07:19:18.211Z,26.20
2018-02-18T07:20:18.133Z,17.80
2018-02-18T07:21:18.114Z,16.50
2018-02-18T07:22:18.094Z,13.30
2018-02-18T07:23:18.071Z,16.20
2018-02-18T07:24:18.053Z,15.50
2018-02-18T07:25:18.062Z,14.80
2018-02-18T07:26:18.010Z,13.30
2018-02-18T07:27:18.096Z,13.30
2018-02-18T07:28:17.976Z,12.10
2018-02-18T07:29:17.966Z,12.50
2018-02-18T07:30:17.923Z,13.20
2018-02-18T07:31:18.005Z,12.40
2018-02-18T07:32:17.889Z,14.50
2018-02-18T07:33:17.966Z,30.70
2018-02-18T07:34:17.840Z,38.10
2018-02-18T07:35:17.972Z,38.10
2018-02-18T07:36:17.851Z,34.60
2018-02-18T07:37:17.779Z,33.80
2018-02-18T07:38:17.758Z,26.90
2018-02-18T07:39:17.803Z,24.90
2018-02-18T07:40:17.720Z,19.80
2018-02-18T07:41:17.705Z,23.30
2018-02-18T07:42:17.673Z,23.10
2018-02-18T07:43:17.761Z,23.10
2018-02-18T07:44:17.633Z,23.00
2018-02-18T07:45:17.618Z,21.10
2018-02-18T07:46:17.588Z,22.40
2018-02-18T07:47:17.571Z,24.00
2018-02-18T07:48:17.604Z,22.20
2018-02-18T07:49:17.530Z,20.40
2018-02-18T07:50:17.505Z,19.70
2018-02-18T07:51:17.566Z,20.20
2018-02-18T07:52:17.463Z,15.10
2018-02-18T07:53:17.576Z,13.20
2018-02-18T07:54:17.424Z,15.90
2018-02-18T07:55:17.506Z,12.10
2018-02-18T07:56:17.381Z,13.00
2018-02-18T07:57:17.368Z,10.70
2018-02-18T07:58:17.339Z,13.40
2018-02-18T07:59:17.320Z,12.40
2018-02-18T08:00:17.300Z,11.50
2018-02-18T08:01:17.284Z,12.70
2018-02-18T08:02:17.264Z,13.60
2018-02-18T08:03:17.238Z,13.80
2018-02-18T08:04:17.214Z,12.20
2018-02-18T08:05:17.197Z,16.10
2018-02-18T08:06:17.214Z,17.10
2018-02-18T08:07:17.245Z,11.80
2018-02-18T08:08:17.131Z,12.80
2018-02-18T08:09:17.110Z,12.30
2018-02-18T08:10:17.095Z,11.00
2018-02-18T08:11:17.073Z,11.10
2018-02-18T08:12:17.049Z,12.50
2018-02-18T08:13:17.036Z,9.50
2018-02-18T08:14:17.016Z,11.80
2018-02-18T08:15:16.988Z,11.80
2018-02-18T08:16:16.968Z,11.70
2018-02-18T08:17:16.944Z,11.40
2018-02-18T08:18:16.929Z,10.90
2018-02-18T08:19:16.903Z,9.50
2018-02-18T08:20:16.884Z,10.30
2018-02-18T08:21:16.869Z,9.70
2018-02-18T08:22:16.844Z,9.40
2018-02-18T08:23:16.822Z,12.80
2018-02-18T08:24:16.800Z,11.50
2018-02-18T08:25:16.785Z,9.20
2018-02-18T08:26:16.762Z,10.00
2018-02-18T08:27:16.745Z,16.90
2018-02-18T08:28:16.722Z,15.50
2018-02-18T08:29:16.697Z,14.40
2018-02-18T08:30:16.681Z,15.50
2018-02-18T08:31:16.657Z,15.30
2018-02-18T08:32:16.634Z,13.60
2018-02-18T08:33:16.618Z,11.90
2018-02-18T08:34:16.602Z,12.10
2018-02-18T08:35:16.580Z,11.20
2018-02-18T08:36:16.558Z,11.60
2018-02-18T08:37:16.544Z,12.20
2018-02-18T08:38:16.516Z,11.90
2018-02-18T08:39:16.495Z,12.60
2018-02-18T08:40:16.476Z,12.00
2018-02-18T08:41:16.458Z,12.60
2018-02-18T08:42:16.438Z,12.50
2018-02-18T08:43:16.412Z,11.40
2018-02-18T08:44:16.397Z,13.20
2018-02-18T08:45:16.371Z,12.50
2018-02-18T08:46:16.356Z,11.90
2018-02-18T08:47:16.332Z,12.20
2018-02-18T08:48:16.310Z,11.90
2018-02-18T08:49:16.294Z,12.30
2018-02-18T08:50:16.271Z,13.80
2018-02-18T08:51:16.258Z,10.90
2018-02-18T08:52:16.234Z,10.90
2018-02-18T08:53:16.461Z,10.00
2018-02-18T08:54:16.190Z,10.50
2018-02-18T08:55:16.170Z,8.20
2018-02-18T08:56:16.152Z,7.70
2018-02-18T08:57:16.128Z,11.10
2018-02-18T08:58:16.120Z,9.40
2018-02-18T08:59:16.089Z,9.20
2018-02-18T09:00:16.072Z,7.90
2018-02-18T09:01:16.069Z,10.30
2018-02-18T09:02:16.032Z,8.40
2018-02-18T09:03:16.010Z,9.80
2018-02-18T09:04:15.994Z,10.80
2018-02-18T09:05:15.972Z,13.20
2018-02-18T09:06:15.949Z,13.90
2018-02-18T09:07:15.979Z,14.00
2018-02-18T09:08:15.917Z,12.30
2018-02-18T09:09:15.888Z,12.30
2018-02-18T09:10:15.867Z,12.60
2018-02-18T09:11:15.844Z,9.20
2018-02-18T09:12:15.825Z,9.40
2018-02-18T09:13:15.804Z,8.60
2018-02-18T09:14:15.784Z,11.40
2018-02-18T09:15:15.764Z,9.80
2018-02-18T09:16:15.749Z,10.60
2018-02-18T09:17:15.729Z,11.40
2018-02-18T09:18:15.706Z,10.40
2018-02-18T09:19:15.688Z,9.30
2018-02-18T09:20:15.666Z,10.60
2018-02-18T09:21:15.645Z,9.20
2018-02-18T09:22:15.626Z,10.60
2018-02-18T09:23:15.605Z,10.00
2018-02-18T09:24:15.586Z,8.30
2018-02-18T09:25:15.565Z,9.30
2018-02-18T09:26:15.544Z,11.30
2018-02-18T09:27:15.526Z,10.20
2018-02-18T09:28:15.505Z,7.60
2018-02-18T09:29:15.535Z,6.80
2018-02-18T09:30:15.465Z,4.20
2018-02-18T09:31:15.444Z,5.70
2018-02-18T09:32:15.425Z,4.70
2018-02-18T09:33:15.403Z,6.00
2018-02-18T09:34:15.384Z,7.60
2018-02-18T09:35:15.365Z,6.20
2018-02-18T09:36:15.346Z,5.10
2018-02-18T09:37:15.325Z,6.00
2018-02-18T09:38:15.304Z,5.60
2018-02-18T09:39:15.286Z,3.20
2018-02-18T09:40:15.266Z,5.10
2018-02-18T09:41:15.245Z,4.00
2018-02-18T09:42:15.229Z,3.70
2018-02-18T09:43:15.208Z,6.40
2018-02-18T09:44:15.188Z,4.40
2018-02-18T09:45:15.170Z,4.20
2018-02-18T09:46:15.148Z,5.40
2018-02-18T09:47:15.129Z,5.70
2018-02-18T09:48:15.106Z,5.10
2018-02-18T09:49:15.084Z,6.10
2018-02-18T09:50:15.065Z,5.30
2018-02-18T09:51:15.052Z,5.10
2018-02-18T09:52:15.035Z,4.10
2018-02-18T09:53:15.010Z,4.30
2018-02-18T09:54:14.988Z,3.50
2018-02-18T09:55:14.967Z,4.40
2018-02-18T09:56:14.948Z,4.20
2018-02-18T09:57:14.933Z,3.70
2018-02-18T09:58:14.916Z,4.60
2018-02-18T09:59:14.888Z,5.20
2018-02-18T10:00:14.869Z,5.20
2018-02-18T10:01:14.852Z,6.10
2018-02-18T10:02:14.829Z,6.60
2018-02-18T10:03:14.814Z,6.80
2018-02-18T10:04:14.792Z,6.20
2018-02-18T10:05:14.772Z,6.90
2018-02-18T10:06:14.752Z,6.90
2018-02-18T10:07:14.729Z,5.80
2018-02-18T10:08:14.714Z,7.10
2018-02-18T10:09:14.693Z,7.70
2018-02-18T10:10:14.671Z,5.70
2018-02-18T10:11:14.654Z,4.70
2018-02-18T10:12:15.246Z,5.40
2018-02-18T10:13:14.612Z,4.00
2018-02-18T10:14:14.593Z,4.20
2018-02-18T10:15:14.575Z,4.90
2018-02-18T10:16:14.553Z,3.00
2018-02-18T10:17:14.537Z,6.30
2018-02-18T10:18:14.520Z,2.70
2018-02-18T10:19:14.495Z,3.90
2018-02-18T10:20:14.474Z,3.10
2018-02-18T10:21:14.465Z,3.30
2018-02-18T10:22:14.434Z,2.50
2018-02-18T10:23:14.415Z,2.50
2018-02-18T10:24:14.393Z,4.20
2018-02-18T10:25:14.423Z,3.40
2018-02-18T10:26:14.358Z,4.40
2018-02-18T10:27:14.339Z,5.20
2018-02-18T10:28:14.324Z,2.90
2018-02-18T10:29:14.550Z,3.80
2018-02-18T10:30:14.281Z,4.10
2018-02-18T10:31:14.259Z,3.30
2018-02-18T10:32:14.243Z,2.80
2018-02-18T10:33:14.230Z,4.40
2018-02-18T10:34:14.253Z,2.60
2018-02-18T10:35:14.185Z,4.00
2018-02-18T10:36:14.222Z,3.80
2018-02-18T10:37:14.150Z,2.60
2018-02-18T10:38:14.124Z,2.80
2018-02-18T10:39:14.354Z,2.60
2018-02-18T10:40:14.089Z,2.70
2018-02-18T10:41:14.072Z,3.50
2018-02-18T10:42:14.049Z,2.40
2018-02-18T10:43:14.030Z,2.90
2018-02-18T10:44:14.060Z,1.90
2018-02-18T10:45:13.993Z,3.10
2018-02-18T10:46:13.983Z,3.30
2018-02-18T10:47:13.964Z,2.70
2018-02-18T10:48:13.935Z,2.80
2018-02-18T10:49:13.916Z,2.40
2018-02-18T10:50:14.094Z,3.70
2018-02-18T10:51:13.879Z,4.20
2018-02-18T10:52:13.864Z,1.90
2018-02-18T10:53:13.842Z,3.80
2018-02-18T10:54:13.858Z,2.20
2018-02-18T10:55:13.801Z,2.10
2018-02-18T10:56:13.834Z,3.00
2018-02-18T10:57:13.765Z,2.40
2018-02-18T10:58:13.754Z,1.70
2018-02-18T10:59:13.728Z,2.10
2018-02-18T11:00:13.807Z,2.10
2018-02-18T11:01:13.690Z,3.10
2018-02-18T11:02:13.671Z,3.10
2018-02-18T11:03:13.655Z,2.90
2018-02-18T11:04:13.632Z,3.60
2018-02-18T11:05:13.619Z,2.80
2018-02-18T11:06:13.650Z,2.90
2018-02-18T11:07:13.580Z,3.50
2018-02-18T11:08:13.563Z,2.40
2018-02-18T11:09:13.540Z,2.50
2018-02-18T11:10:13.573Z,3.00
2018-02-18T11:11:13.505Z,3.70
2018-02-18T11:12:13.489Z,3.60
2018-02-18T11:13:13.470Z,3.20
2018-02-18T11:14:13.451Z,3.90
2018-02-18T11:15:13.436Z,1.60
2018-02-18T11:16:13.411Z,4.00
2018-02-18T11:17:13.394Z,2.20
2018-02-18T11:18:13.406Z,2.90
2018-02-18T11:19:13.358Z,2.70
2018-02-18T11:20:13.346Z,3.10
2018-02-18T11:21:13.324Z,1.50
2018-02-18T11:22:13.309Z,3.20
2018-02-18T11:23:13.287Z,2.60
2018-02-18T11:24:13.265Z,4.40
2018-02-18T11:25:13.247Z,3.00
2018-02-18T11:26:13.231Z,2.80
2018-02-18T11:27:13.215Z,4.30
2018-02-18T11:28:13.201Z,3.90
2018-02-18T11:29:13.175Z,3.40
2018-02-18T11:30:13.159Z,4.80
2018-02-18T11:31:13.140Z,2.70
2018-02-18T11:32:13.120Z,3.50
2018-02-18T11:33:13.107Z,4.30
2018-02-18T11:34:13.090Z,3.30
2018-02-18T11:35:13.063Z,3.40
2018-02-18T11:36:13.047Z,4.60
2018-02-18T11:37:13.025Z,3.10
2018-02-18T11:38:13.012Z,3.60
2018-02-18T11:39:12.991Z,2.80
2018-02-18T11:40:12.971Z,3.30
2018-02-18T11:41:12.954Z,3.40
2018-02-18T11:42:12.987Z,3.80
2018-02-18T11:43:12.915Z,3.20
2018-02-18T11:44:12.897Z,4.30
2018-02-18T11:45:12.881Z,2.90
2018-02-18T11:46:12.864Z,2.50
2018-02-18T11:47:12.842Z,2.70
2018-02-18T11:48:12.825Z,3.20
2018-02-18T11:49:12.805Z,2.90
2018-02-18T11:50:12.788Z,4.10
2018-02-18T11:51:12.772Z,4.10
2018-02-18T11:52:12.756Z,3.10
2018-02-18T11:53:12.731Z,4.70
2018-02-18T11:54:12.716Z,4.20
2018-02-18T11:55:12.696Z,3.60
2018-02-18T11:56:12.676Z,2.20
2018-02-18T11:57:12.658Z,2.70
2018-02-18T11:58:12.651Z,3.90
2018-02-18T11:59:12.625Z,3.50
2018-02-18T12:00:12.603Z,3.20
2018-02-18T12:01:12.588Z,3.80
2018-02-18T12:02:12.580Z,3.70
2018-02-18T12:03:12.560Z,3.30
2018-02-18T12:04:12.534Z,2.60
2018-02-18T12:05:12.515Z,4.10
2018-02-18T12:06:12.495Z,3.30
2018-02-18T12:07:12.489Z,3.10
2018-02-18T12:08:12.457Z,4.10
2018-02-18T12:09:12.438Z,1.70
2018-02-18T12:10:12.672Z,5.20
2018-02-18T12:11:12.406Z,2.00
2018-02-18T12:12:12.385Z,2.50
2018-02-18T12:13:12.365Z,3.00
2018-02-18T12:14:12.352Z,4.20
2018-02-18T12:15:12.585Z,2.90
2018-02-18T12:16:12.314Z,3.70
2018-02-18T12:17:12.297Z,2.40
2018-02-18T12:18:12.272Z,3.40
2018-02-18T12:19:12.257Z,3.50
2018-02-18T12:20:12.538Z,4.60
2018-02-18T12:21:12.226Z,2.30
2018-02-18T12:22:12.210Z,3.20
2018-02-18T12:23:12.200Z,6.20
2018-02-18T12:24:12.225Z,3.30
2018-02-18T12:25:12.400Z,3.90
2018-02-18T12:26:12.175Z,4.70
2018-02-18T12:27:12.119Z,3.20
2018-02-18T12:28:12.138Z,2.90
2018-02-18T12:29:12.075Z,2.00
2018-02-18T12:30:12.155Z,3.60
2018-02-18T12:31:12.034Z,2.60
2018-02-18T12:32:12.123Z,3.60
2018-02-18T12:33:12.003Z,5.30
2018-02-18T12:34:12.010Z,4.20
2018-02-18T12:35:11.963Z,3.00
2018-02-18T12:36:12.010Z,3.00
2018-02-18T12:37:11.925Z,3.90
2018-02-18T12:38:11.957Z,4.00
2018-02-18T12:39:11.887Z,5.80
2018-02-18T12:40:11.926Z,3.40
2018-02-18T12:41:11.853Z,4.50
2018-02-18T12:42:11.933Z,3.40
2018-02-18T12:43:11.816Z,4.00
2018-02-18T12:44:11.894Z,3.20
2018-02-18T12:45:11.782Z,2.60
2018-02-18T12:46:11.815Z,3.70
2018-02-18T12:47:11.741Z,3.80
2018-02-18T12:48:11.734Z,3.60
2018-02-18T12:49:11.703Z,3.80
2018-02-18T12:50:11.686Z,2.70
2018-02-18T12:51:11.967Z,3.40
2018-02-18T12:52:11.671Z,5.40
2018-02-18T12:53:11.629Z,3.10
2018-02-18T12:54:11.623Z,2.70
2018-02-18T12:55:11.595Z,3.10
2018-02-18T12:56:11.675Z,3.70
2018-02-18T12:57:11.562Z,4.30
2018-02-18T12:58:11.544Z,4.20
2018-02-18T12:59:11.518Z,4.20
2018-02-18T13:00:11.553Z,4.60